sensor_id;sensor_type;location;lat;lon;timestamp;pressure;altitude;pressure_sealevel;temperature;humidity
21357;BME280;10836;53.068;18.234;2023-09-12T00:01:21;100751.09;;;12.88;100.00
21357;BME280;10836;53.068;18.234;2023-09-12T00:03:48;100752.09;;;12.97;100.00
21357;BME280;10836;53.068;18.234;2023-09-12T00:06:15;100745.03;;;12.91;100.00
21357;BME280;10836;53.068;18.234;2023-09-12T00:08:42;100750.06;;;12.79;100.00
21357;BME280;10836;53.068;18.234;2023-09-12T00:11:10;100745.97;;;12.76;100.00
21357;BME280;10836;53.068;18.234;2023-09-12T00:13:39;100744.16;;;12.61;100.00
21357;BME280;10836;53.068;18.234;2023-09-12T00:16:07;100741.97;;;12.63;100.00
21357;BME280;10836;53.068;18.234;2023-09-12T00:18:38;100746.88;;;12.66;100.00
21357;BME280;10836;53.068;18.234;2023-09-12T00:21:05;100749.09;;;12.59;100.00
21357;BME280;10836;53.068;18.234;2023-09-12T00:23:33;100749.69;;;12.56;100.00
21357;BME280;10836;53.068;18.234;2023-09-12T00:26:00;100750.81;;;12.55;100.00
21357;BME280;10836;53.068;18.234;2023-09-12T00:28:27;100753.44;;;12.65;100.00
21357;BME280;10836;53.068;18.234;2023-09-12T00:30:54;100745.22;;;12.65;100.00
21357;BME280;10836;53.068;18.234;2023-09-12T00:33:22;100747.59;;;12.43;100.00
21357;BME280;10836;53.068;18.234;2023-09-12T00:35:51;100743.31;;;12.27;100.00
21357;BME280;10836;53.068;18.234;2023-09-12T00:38:18;100750.13;;;12.35;100.00
21357;BME280;10836;53.068;18.234;2023-09-12T00:40:45;100749.84;;;12.36;100.00
21357;BME280;10836;53.068;18.234;2023-09-12T00:43:12;100748.47;;;12.39;100.00
21357;BME280;10836;53.068;18.234;2023-09-12T00:45:39;100744.91;;;12.38;100.00
21357;BME280;10836;53.068;18.234;2023-09-12T00:48:09;100742.69;;;12.40;100.00
21357;BME280;10836;53.068;18.234;2023-09-12T00:50:37;100748.50;;;12.33;100.00
21357;BME280;10836;53.068;18.234;2023-09-12T00:53:05;100739.06;;;12.11;100.00
21357;BME280;10836;53.068;18.234;2023-09-12T00:55:34;100742.44;;;11.92;100.00
21357;BME280;10836;53.068;18.234;2023-09-12T00:58:03;100738.06;;;11.91;100.00
21357;BME280;10836;53.068;18.234;2023-09-12T01:00:30;100739.47;;;11.84;100.00
21357;BME280;10836;53.068;18.234;2023-09-12T01:02:58;100735.38;;;11.81;100.00
21357;BME280;10836;53.068;18.234;2023-09-12T01:05:26;100742.97;;;11.94;100.00
21357;BME280;10836;53.068;18.234;2023-09-12T01:07:54;100738.59;;;11.93;100.00
21357;BME280;10836;53.068;18.234;2023-09-12T01:10:22;100739.19;;;11.80;100.00
21357;BME280;10836;53.068;18.234;2023-09-12T01:12:50;100732.09;;;11.79;100.00
21357;BME280;10836;53.068;18.234;2023-09-12T01:15:17;100736.44;;;11.85;100.00
21357;BME280;10836;53.068;18.234;2023-09-12T01:17:45;100735.09;;;11.78;100.00
21357;BME280;10836;53.068;18.234;2023-09-12T01:20:39;100739.75;;;11.77;100.00
21357;BME280;10836;53.068;18.234;2023-09-12T01:28:34;100730.72;;;11.82;100.00
21357;BME280;10836;53.068;18.234;2023-09-12T01:31:04;100729.91;;;11.81;100.00
21357;BME280;10836;53.068;18.234;2023-09-12T01:33:32;100726.03;;;11.92;100.00
21357;BME280;10836;53.068;18.234;2023-09-12T01:35:59;100729.56;;;11.98;100.00
21357;BME280;10836;53.068;18.234;2023-09-12T01:38:26;100737.22;;;11.96;100.00
21357;BME280;10836;53.068;18.234;2023-09-12T01:40:54;100734.81;;;11.84;100.00
21357;BME280;10836;53.068;18.234;2023-09-12T01:43:24;100742.75;;;11.86;100.00
21357;BME280;10836;53.068;18.234;2023-09-12T01:45:54;100735.88;;;11.88;100.00
21357;BME280;10836;53.068;18.234;2023-09-12T01:48:23;100743.56;;;11.86;100.00
21357;BME280;10836;53.068;18.234;2023-09-12T01:50:54;100737.00;;;11.72;100.00
21357;BME280;10836;53.068;18.234;2023-09-12T01:53:21;100735.69;;;11.70;100.00
21357;BME280;10836;53.068;18.234;2023-09-12T01:55:48;100741.38;;;11.73;100.00
21357;BME280;10836;53.068;18.234;2023-09-12T01:58:15;100742.47;;;11.82;100.00
21357;BME280;10836;53.068;18.234;2023-09-12T02:00:42;100735.44;;;11.66;100.00
21357;BME280;10836;53.068;18.234;2023-09-12T02:03:09;100741.16;;;11.70;100.00
21357;BME280;10836;53.068;18.234;2023-09-12T02:05:38;100743.72;;;11.41;100.00
21357;BME280;10836;53.068;18.234;2023-09-12T02:08:05;100738.75;;;11.48;100.00
21357;BME280;10836;53.068;18.234;2023-09-12T02:10:34;100737.09;;;11.62;100.00
21357;BME280;10836;53.068;18.234;2023-09-12T02:13:01;100745.28;;;11.67;100.00
21357;BME280;10836;53.068;18.234;2023-09-12T02:15:28;100734.91;;;11.54;100.00
21357;BME280;10836;53.068;18.234;2023-09-12T02:17:55;100736.03;;;11.48;100.00
21357;BME280;10836;53.068;18.234;2023-09-12T02:20:22;100734.91;;;11.54;100.00
21357;BME280;10836;53.068;18.234;2023-09-12T02:22:49;100735.72;;;11.59;100.00
21357;BME280;10836;53.068;18.234;2023-09-12T02:25:17;100738.72;;;11.63;100.00
21357;BME280;10836;53.068;18.234;2023-09-12T02:27:47;100747.47;;;11.65;100.00
21357;BME280;10836;53.068;18.234;2023-09-12T02:30:14;100740.66;;;11.52;100.00
21357;BME280;10836;53.068;18.234;2023-09-12T02:32:44;100742.88;;;11.45;100.00
21357;BME280;10836;53.068;18.234;2023-09-12T02:35:11;100743.44;;;11.32;100.00
21357;BME280;10836;53.068;18.234;2023-09-12T02:37:38;100753.06;;;11.14;100.00
21357;BME280;10836;53.068;18.234;2023-09-12T02:40:06;100757.41;;;11.30;100.00
21357;BME280;10836;53.068;18.234;2023-09-12T02:42:33;100747.56;;;11.29;100.00
21357;BME280;10836;53.068;18.234;2023-09-12T02:45:00;100745.34;;;11.37;100.00
21357;BME280;10836;53.068;18.234;2023-09-12T02:47:27;100748.66;;;11.28;100.00
21357;BME280;10836;53.068;18.234;2023-09-12T02:49:55;100749.53;;;11.09;100.00
21357;BME280;10836;53.068;18.234;2023-09-12T02:52:21;100756.91;;;11.03;100.00
21357;BME280;10836;53.068;18.234;2023-09-12T02:54:48;100759.09;;;11.11;100.00
21357;BME280;10836;53.068;18.234;2023-09-12T02:57:15;100756.34;;;11.16;100.00
21357;BME280;10836;53.068;18.234;2023-09-12T02:59:42;100751.16;;;11.15;100.00
21357;BME280;10836;53.068;18.234;2023-09-12T03:02:09;100754.44;;;11.12;100.00
21357;BME280;10836;53.068;18.234;2023-09-12T03:04:36;100757.44;;;11.20;100.00
21357;BME280;10836;53.068;18.234;2023-09-12T03:07:03;100764.28;;;11.18;100.00
21357;BME280;10836;53.068;18.234;2023-09-12T03:09:31;100752.53;;;11.17;100.00
21357;BME280;10836;53.068;18.234;2023-09-12T03:11:58;100747.88;;;11.08;100.00
21357;BME280;10836;53.068;18.234;2023-09-12T03:14:27;100750.06;;;11.06;100.00
21357;BME280;10836;53.068;18.234;2023-09-12T03:16:55;100750.34;;;10.99;100.00
21357;BME280;10836;53.068;18.234;2023-09-12T03:19:23;100750.06;;;11.06;100.00
21357;BME280;10836;53.068;18.234;2023-09-12T03:21:50;100755.53;;;10.95;100.00
21357;BME280;10836;53.068;18.234;2023-09-12T03:24:17;100760.19;;;10.95;100.00
21357;BME280;10836;53.068;18.234;2023-09-12T03:26:45;100755.53;;;10.95;100.00
21357;BME280;10836;53.068;18.234;2023-09-12T03:29:12;100750.91;;;10.96;100.00
21357;BME280;10836;53.068;18.234;2023-09-12T03:31:39;100751.44;;;10.88;100.00
21357;BME280;10836;53.068;18.234;2023-09-12T03:34:06;100751.44;;;10.88;100.00
21357;BME280;10836;53.068;18.234;2023-09-12T03:36:33;100751.19;;;10.89;100.00
21357;BME280;10836;53.068;18.234;2023-09-12T03:39:00;100760.19;;;10.95;100.00
21357;BME280;10836;53.068;18.234;2023-09-12T03:41:27;100753.34;;;11.08;100.00
21357;BME280;10836;53.068;18.234;2023-09-12T03:43:56;100757.19;;;10.86;100.00
21357;BME280;10836;53.068;18.234;2023-09-12T03:46:23;100759.13;;;10.81;100.00
21357;BME280;10836;53.068;18.234;2023-09-12T03:48:50;100752.00;;;10.90;100.00
21357;BME280;10836;53.068;18.234;2023-09-12T03:51:18;100752.28;;;10.88;100.00
21357;BME280;10836;53.068;18.234;2023-09-12T03:53:45;100746.56;;;10.80;100.00
21357;BME280;10836;53.068;18.234;2023-09-12T03:56:14;100748.75;;;10.68;100.00
21357;BME280;10836;53.068;18.234;2023-09-12T03:58:42;100749.28;;;10.75;100.00
21357;BME280;10836;53.068;18.234;2023-09-12T04:01:10;100749.28;;;10.59;100.00
21357;BME280;10836;53.068;18.234;2023-09-12T04:03:37;100745.19;;;10.62;100.00
21357;BME280;10836;53.068;18.234;2023-09-12T04:06:04;100742.47;;;10.67;100.00
21357;BME280;10836;53.068;18.234;2023-09-12T04:08:32;100752.03;;;10.70;100.00
21357;BME280;10836;53.068;18.234;2023-09-12T04:10:59;100751.19;;;10.74;100.00
21357;BME280;10836;53.068;18.234;2023-09-12T04:13:27;100752.00;;;10.85;100.00
21357;BME280;10836;53.068;18.234;2023-09-12T04:15:53;100757.50;;;10.80;100.00
21357;BME280;10836;53.068;18.234;2023-09-12T04:18:21;100759.13;;;10.71;100.00
21357;BME280;10836;53.068;18.234;2023-09-12T04:20:48;100760.75;;;10.77;100.00
21357;BME280;10836;53.068;18.234;2023-09-12T04:23:15;100761.84;;;10.71;100.00
21357;BME280;10836;53.068;18.234;2023-09-12T04:25:42;100752.81;;;10.60;100.00
21357;BME280;10836;53.068;18.234;2023-09-12T04:28:10;100755.81;;;10.53;100.00
21357;BME280;10836;53.068;18.234;2023-09-12T04:30:37;100757.47;;;10.59;100.00
21357;BME280;10836;53.068;18.234;2023-09-12T04:33:07;100755.00;;;10.58;100.00
21357;BME280;10836;53.068;18.234;2023-09-12T04:35:34;100754.75;;;10.75;100.00
21357;BME280;10836;53.068;18.234;2023-09-12T04:38:01;100749.81;;;10.92;100.00
21357;BME280;10836;53.068;18.234;2023-09-12T04:40:29;100751.47;;;10.78;100.00
21357;BME280;10836;53.068;18.234;2023-09-12T04:42:57;100745.75;;;10.69;100.00
21357;BME280;10836;53.068;18.234;2023-09-12T04:45:23;100754.75;;;10.64;100.00
21357;BME280;10836;53.068;18.234;2023-09-12T04:47:51;100754.72;;;10.85;100.00
21357;BME280;10836;53.068;18.234;2023-09-12T04:50:17;100751.16;;;11.05;100.00
21357;BME280;10836;53.068;18.234;2023-09-12T04:52:45;100761.00;;;11.06;100.00
21357;BME280;10836;53.068;18.234;2023-09-12T04:55:12;100751.16;;;11.10;100.00
21357;BME280;10836;53.068;18.234;2023-09-12T04:57:39;100745.97;;;11.18;100.00
21357;BME280;10836;53.068;18.234;2023-09-12T05:00:09;100750.81;;;11.37;100.00
21357;BME280;10836;53.068;18.234;2023-09-12T05:02:38;100750.25;;;11.50;100.00
21357;BME280;10836;53.068;18.234;2023-09-12T05:05:05;100752.94;;;11.65;100.00
21357;BME280;10836;53.068;18.234;2023-09-12T05:07:32;100752.41;;;11.58;100.00
21357;BME280;10836;53.068;18.234;2023-09-12T05:10:00;100754.03;;;11.59;100.00
21357;BME280;10836;53.068;18.234;2023-09-12T05:12:28;100760.53;;;11.73;100.00
21357;BME280;10836;53.068;18.234;2023-09-12T05:14:54;100768.75;;;11.78;100.00
21357;BME280;10836;53.068;18.234;2023-09-12T05:17:22;100769.81;;;11.87;100.00
21357;BME280;10836;53.068;18.234;2023-09-12T05:19:49;100770.06;;;11.96;100.00
21357;BME280;10836;53.068;18.234;2023-09-12T05:22:16;100772.94;;;12.15;100.00
21357;BME280;10836;53.068;18.234;2023-09-12T05:24:43;100784.38;;;12.32;100.00
21357;BME280;10836;53.068;18.234;2023-09-12T05:27:10;100779.25;;;12.59;100.00
21357;BME280;10836;53.068;18.234;2023-09-12T05:29:37;100776.41;;;12.75;100.00
21357;BME280;10836;53.068;18.234;2023-09-12T05:32:05;100778.50;;;12.88;100.00
21357;BME280;10836;53.068;18.234;2023-09-12T05:34:32;100777.88;;;12.96;100.00
21357;BME280;10836;53.068;18.234;2023-09-12T05:36:59;100780.47;;;13.11;100.00
21357;BME280;10836;53.068;18.234;2023-09-12T05:39:26;100774.47;;;13.38;100.00
21357;BME280;10836;53.068;18.234;2023-09-12T05:41:53;100775.63;;;13.56;100.00
21357;BME280;10836;53.068;18.234;2023-09-12T05:44:20;100777.06;;;13.77;100.00
21357;BME280;10836;53.068;18.234;2023-09-12T05:46:48;100770.59;;;13.87;100.00
21357;BME280;10836;53.068;18.234;2023-09-12T05:49:15;100771.41;;;13.87;100.00
21357;BME280;10836;53.068;18.234;2023-09-12T05:51:43;100766.63;;;13.98;100.00
21357;BME280;10836;53.068;18.234;2023-09-12T05:54:10;100772.06;;;14.22;100.00
21357;BME280;10836;53.068;18.234;2023-09-12T05:56:39;100775.94;;;14.58;100.00
21357;BME280;10836;53.068;18.234;2023-09-12T05:59:06;100779.91;;;14.85;100.00
21357;BME280;10836;53.068;18.234;2023-09-12T06:01:33;100782.84;;;15.07;100.00
21357;BME280;10836;53.068;18.234;2023-09-12T06:04:00;100778.00;;;15.31;100.00
21357;BME280;10836;53.068;18.234;2023-09-12T06:06:28;100777.75;;;15.74;100.00
21357;BME280;10836;53.068;18.234;2023-09-12T06:08:55;100770.88;;;16.13;100.00
21357;BME280;10836;53.068;18.234;2023-09-12T06:11:24;100778.31;;;16.26;100.00
21357;BME280;10836;53.068;18.234;2023-09-12T06:13:50;100782.41;;;16.51;100.00
21357;BME280;10836;53.068;18.234;2023-09-12T06:16:17;100782.78;;;16.72;100.00
21357;BME280;10836;53.068;18.234;2023-09-12T06:18:44;100780.00;;;16.94;100.00
21357;BME280;10836;53.068;18.234;2023-09-12T06:21:12;100779.38;;;16.97;100.00
21357;BME280;10836;53.068;18.234;2023-09-12T06:23:39;100787.91;;;17.09;100.00
21357;BME280;10836;53.068;18.234;2023-09-12T06:26:06;100789.28;;;17.51;100.00
21357;BME280;10836;53.068;18.234;2023-09-12T06:28:33;100779.28;;;18.21;100.00
21357;BME280;10836;53.068;18.234;2023-09-12T06:31:00;100790.41;;;18.90;100.00
21357;BME280;10836;53.068;18.234;2023-09-12T06:33:27;100787.44;;;19.68;100.00
21357;BME280;10836;53.068;18.234;2023-09-12T06:35:55;100789.72;;;20.75;100.00
21357;BME280;10836;53.068;18.234;2023-09-12T06:38:22;100792.91;;;21.31;100.00
21357;BME280;10836;53.068;18.234;2023-09-12T06:40:50;100792.41;;;21.16;100.00
21357;BME280;10836;53.068;18.234;2023-09-12T06:43:17;100795.41;;;21.56;99.66
21357;BME280;10836;53.068;18.234;2023-09-12T06:45:45;100804.34;;;22.35;91.95
21357;BME280;10836;53.068;18.234;2023-09-12T06:48:11;100808.53;;;24.16;81.92
21357;BME280;10836;53.068;18.234;2023-09-12T06:50:39;100789.41;;;25.07;70.85
21357;BME280;10836;53.068;18.234;2023-09-12T06:53:06;100798.06;;;27.40;60.62
21357;BME280;10836;53.068;18.234;2023-09-12T06:55:37;100802.97;;;28.45;53.01
21357;BME280;10836;53.068;18.234;2023-09-12T06:58:04;100804.97;;;29.46;48.85
21357;BME280;10836;53.068;18.234;2023-09-12T07:00:31;100802.44;;;28.98;50.92
21357;BME280;10836;53.068;18.234;2023-09-12T07:02:58;100800.56;;;29.95;47.56
21357;BME280;10836;53.068;18.234;2023-09-12T07:05:25;100800.91;;;29.33;48.22
21357;BME280;10836;53.068;18.234;2023-09-12T07:07:52;100800.09;;;30.57;44.56
21357;BME280;10836;53.068;18.234;2023-09-12T07:10:19;100800.94;;;29.40;47.67
21357;BME280;10836;53.068;18.234;2023-09-12T07:12:52;100809.75;;;30.63;44.16
21357;BME280;10836;53.068;18.234;2023-09-12T07:15:20;100809.41;;;31.34;42.43
21357;BME280;10836;53.068;18.234;2023-09-12T07:17:48;100807.38;;;30.33;43.67
21357;BME280;10836;53.068;18.234;2023-09-12T07:20:15;100801.25;;;32.43;40.10
21357;BME280;10836;53.068;18.234;2023-09-12T07:22:44;100799.72;;;32.69;39.12
21357;BME280;10836;53.068;18.234;2023-09-12T07:25:13;100795.06;;;32.14;40.91
21357;BME280;10836;53.068;18.234;2023-09-12T07:27:39;100799.63;;;32.46;39.58
21357;BME280;10836;53.068;18.234;2023-09-12T07:30:07;100799.97;;;32.85;37.69
21357;BME280;10836;53.068;18.234;2023-09-12T07:32:34;100797.09;;;31.65;41.05
21357;BME280;10836;53.068;18.234;2023-09-12T07:35:02;100794.13;;;29.91;44.25
21357;BME280;10836;53.068;18.234;2023-09-12T07:37:29;100791.72;;;32.98;39.61
21357;BME280;10836;53.068;18.234;2023-09-12T07:39:56;100803.28;;;32.80;38.48
21357;BME280;10836;53.068;18.234;2023-09-12T07:42:24;100796.13;;;33.56;38.27
21357;BME280;10836;53.068;18.234;2023-09-12T07:44:51;100797.09;;;33.46;37.45
21357;BME280;10836;53.068;18.234;2023-09-12T07:47:18;100800.09;;;33.35;37.14
21357;BME280;10836;53.068;18.234;2023-09-12T07:49:53;100803.38;;;34.70;35.01
21357;BME280;10836;53.068;18.234;2023-09-12T07:52:21;100810.31;;;34.89;34.42
21357;BME280;10836;53.068;18.234;2023-09-12T07:54:51;100798.50;;;35.11;34.17
21357;BME280;10836;53.068;18.234;2023-09-12T07:57:23;100795.34;;;35.25;34.29
21357;BME280;10836;53.068;18.234;2023-09-12T07:59:50;100798.59;;;35.43;33.00
21357;BME280;10836;53.068;18.234;2023-09-12T08:02:17;100799.28;;;36.99;31.67
21357;BME280;10836;53.068;18.234;2023-09-12T08:04:44;100795.84;;;36.91;30.70
21357;BME280;10836;53.068;18.234;2023-09-12T08:07:11;100797.28;;;37.63;30.13
21357;BME280;10836;53.068;18.234;2023-09-12T08:09:51;100800.03;;;36.74;30.08
21357;BME280;10836;53.068;18.234;2023-09-12T08:12:20;100799.31;;;37.12;29.47
21357;BME280;10836;53.068;18.234;2023-09-12T08:14:47;100793.50;;;37.79;28.76
21357;BME280;10836;53.068;18.234;2023-09-12T08:17:15;100800.75;;;36.78;29.74
21357;BME280;10836;53.068;18.234;2023-09-12T08:19:42;100793.63;;;36.41;31.80
21357;BME280;10836;53.068;18.234;2023-09-12T08:22:09;100796.34;;;37.15;30.72
21357;BME280;10836;53.068;18.234;2023-09-12T08:24:37;100802.06;;;37.28;30.11
21357;BME280;10836;53.068;18.234;2023-09-12T08:27:05;100804.31;;;37.84;28.93
21357;BME280;10836;53.068;18.234;2023-09-12T08:29:33;100799.31;;;37.62;28.25
21357;BME280;10836;53.068;18.234;2023-09-12T08:32:01;100797.38;;;37.09;28.92
21357;BME280;10836;53.068;18.234;2023-09-12T08:34:28;100797.94;;;37.16;29.41
21357;BME280;10836;53.068;18.234;2023-09-12T08:36:55;100803.84;;;37.98;29.01
21357;BME280;10836;53.068;18.234;2023-09-12T08:39:27;100808.09;;;37.55;29.61
21357;BME280;10836;53.068;18.234;2023-09-12T08:41:54;100810.78;;;38.66;28.54
21357;BME280;10836;53.068;18.234;2023-09-12T08:44:21;100792.25;;;38.92;27.84
21357;BME280;10836;53.068;18.234;2023-09-12T08:46:48;100802.75;;;39.27;27.73
21357;BME280;10836;53.068;18.234;2023-09-12T08:49:16;100796.13;;;38.20;27.94
21357;BME280;10836;53.068;18.234;2023-09-12T08:51:43;100798.00;;;39.23;27.29
21357;BME280;10836;53.068;18.234;2023-09-12T08:54:12;100788.78;;;36.83;30.93
21357;BME280;10836;53.068;18.234;2023-09-12T08:56:43;100794.91;;;38.09;30.06
21357;BME280;10836;53.068;18.234;2023-09-12T08:59:11;100796.78;;;41.02;25.41
21357;BME280;10836;53.068;18.234;2023-09-12T09:01:38;100795.88;;;39.15;27.93
21357;BME280;10836;53.068;18.234;2023-09-12T09:04:07;100793.44;;;41.03;25.12
21357;BME280;10836;53.068;18.234;2023-09-12T09:06:33;100792.88;;;40.26;25.83
21357;BME280;10836;53.068;18.234;2023-09-12T09:09:05;100794.41;;;39.41;27.21
21357;BME280;10836;53.068;18.234;2023-09-12T09:11:33;100796.25;;;38.73;28.64
21357;BME280;10836;53.068;18.234;2023-09-12T09:14:04;100796.00;;;37.77;29.88
21357;BME280;10836;53.068;18.234;2023-09-12T09:16:31;100796.84;;;35.82;30.52
21357;BME280;10836;53.068;18.234;2023-09-12T09:19:00;100789.84;;;38.25;27.67
21357;BME280;10836;53.068;18.234;2023-09-12T09:21:32;100791.66;;;38.98;25.35
21357;BME280;10836;53.068;18.234;2023-09-12T09:24:02;100795.03;;;39.36;25.09
21357;BME280;10836;53.068;18.234;2023-09-12T09:26:50;100793.97;;;40.56;24.88
21357;BME280;10836;53.068;18.234;2023-09-12T09:29:21;100789.00;;;39.43;24.90
21357;BME280;10836;53.068;18.234;2023-09-12T09:31:49;100781.06;;;38.76;27.35
21357;BME280;10836;53.068;18.234;2023-09-12T09:34:21;100783.19;;;39.16;26.19
21357;BME280;10836;53.068;18.234;2023-09-12T09:36:50;100775.31;;;38.98;25.44
21357;BME280;10836;53.068;18.234;2023-09-12T09:39:21;100771.66;;;37.50;27.50
21357;BME280;10836;53.068;18.234;2023-09-12T09:41:50;100777.91;;;37.20;28.35
21357;BME280;10836;53.068;18.234;2023-09-12T09:44:17;100763.06;;;36.00;29.06
21357;BME280;10836;53.068;18.234;2023-09-12T09:46:45;100756.22;;;36.43;28.11
21357;BME280;10836;53.068;18.234;2023-09-12T09:49:16;100761.09;;;36.71;27.39
21357;BME280;10836;53.068;18.234;2023-09-12T09:51:44;100757.13;;;38.17;25.89
21357;BME280;10836;53.068;18.234;2023-09-12T09:54:13;100755.69;;;38.35;25.09
21357;BME280;10836;53.068;18.234;2023-09-12T09:56:47;100745.31;;;38.06;27.00
21357;BME280;10836;53.068;18.234;2023-09-12T09:59:17;100749.97;;;36.89;27.87
21357;BME280;10836;53.068;18.234;2023-09-12T10:01:45;100758.34;;;38.29;26.30
21357;BME280;10836;53.068;18.234;2023-09-12T10:04:13;100747.41;;;38.27;25.36
21357;BME280;10836;53.068;18.234;2023-09-12T10:06:45;100741.97;;;36.30;27.49
21357;BME280;10836;53.068;18.234;2023-09-12T10:09:13;100737.78;;;35.73;27.59
21357;BME280;10836;53.068;18.234;2023-09-12T10:11:43;100741.59;;;33.99;30.82
21357;BME280;10836;53.068;18.234;2023-09-12T10:14:11;100729.63;;;33.41;32.37
21357;BME280;10836;53.068;18.234;2023-09-12T10:16:45;100743.03;;;34.90;30.20
21357;BME280;10836;53.068;18.234;2023-09-12T10:24:39;100738.38;;;36.55;26.39
21357;BME280;10836;53.068;18.234;2023-09-12T10:27:06;100736.66;;;36.45;27.11
21357;BME280;10836;53.068;18.234;2023-09-12T10:29:33;100736.47;;;34.14;29.28
21357;BME280;10836;53.068;18.234;2023-09-12T10:32:01;100732.66;;;34.44;30.75
21357;BME280;10836;53.068;18.234;2023-09-12T10:34:30;100740.75;;;35.17;28.73
21357;BME280;10836;53.068;18.234;2023-09-12T10:36:59;100725.47;;;35.80;27.46
21357;BME280;10836;53.068;18.234;2023-09-12T10:39:32;100734.44;;;36.65;26.35
21357;BME280;10836;53.068;18.234;2023-09-12T10:42:04;100733.19;;;34.94;29.46
21357;BME280;10836;53.068;18.234;2023-09-12T10:44:31;100732.38;;;34.58;30.14
21357;BME280;10836;53.068;18.234;2023-09-12T10:46:59;100728.31;;;35.31;28.19
21357;BME280;10836;53.068;18.234;2023-09-12T10:49:27;100735.44;;;36.00;28.90
21357;BME280;10836;53.068;18.234;2023-09-12T10:51:54;100730.19;;;35.99;27.37
21357;BME280;10836;53.068;18.234;2023-09-12T10:54:36;100725.38;;;36.12;28.49
21357;BME280;10836;53.068;18.234;2023-09-12T10:57:09;100721.47;;;36.64;27.89
21357;BME280;10836;53.068;18.234;2023-09-12T11:02:33;100727.94;;;39.10;24.24
21357;BME280;10836;53.068;18.234;2023-09-12T11:05:06;100718.53;;;37.56;24.43
21357;BME280;10836;53.068;18.234;2023-09-12T11:12:46;100715.03;;;37.87;24.42
21357;BME280;10836;53.068;18.234;2023-09-12T11:15:14;100712.28;;;38.83;23.67
21357;BME280;10836;53.068;18.234;2023-09-12T11:18:05;100705.88;;;37.57;25.23
21357;BME280;10836;53.068;18.234;2023-09-12T11:20:50;100714.38;;;38.39;24.58
21357;BME280;10836;53.068;18.234;2023-09-12T11:23:19;100708.44;;;37.17;26.14
21357;BME280;10836;53.068;18.234;2023-09-12T11:25:46;100714.91;;;37.18;25.34
21357;BME280;10836;53.068;18.234;2023-09-12T11:28:14;100702.97;;;36.30;26.53
21357;BME280;10836;53.068;18.234;2023-09-12T11:30:55;100703.94;;;37.54;25.58
21357;BME280;10836;53.068;18.234;2023-09-12T11:33:25;100711.72;;;37.88;25.44
21357;BME280;10836;53.068;18.234;2023-09-12T11:35:54;100709.41;;;34.68;28.51
21357;BME280;10836;53.068;18.234;2023-09-12T11:38:28;100711.91;;;36.00;27.11
21357;BME280;10836;53.068;18.234;2023-09-12T11:40:57;100710.50;;;35.11;28.10
21357;BME280;10836;53.068;18.234;2023-09-12T11:43:26;100702.63;;;36.12;27.00
21357;BME280;10836;53.068;18.234;2023-09-12T11:45:55;100709.56;;;36.11;26.75
21357;BME280;10836;53.068;18.234;2023-09-12T11:48:22;100713.34;;;34.75;29.54
21357;BME280;10836;53.068;18.234;2023-09-12T11:50:52;100715.19;;;35.37;27.47
21357;BME280;10836;53.068;18.234;2023-09-12T11:53:21;100700.38;;;36.36;26.53
21357;BME280;10836;53.068;18.234;2023-09-12T11:55:51;100712.53;;;37.16;25.86
21357;BME280;10836;53.068;18.234;2023-09-12T11:58:20;100709.75;;;37.98;24.09
21357;BME280;10836;53.068;18.234;2023-09-12T12:00:55;100698.69;;;37.66;25.10
21357;BME280;10836;53.068;18.234;2023-09-12T12:03:24;100703.22;;;37.76;24.34
21357;BME280;10836;53.068;18.234;2023-09-12T12:05:53;100690.88;;;35.52;27.38
21357;BME280;10836;53.068;18.234;2023-09-12T12:08:21;100695.63;;;36.58;25.67
21357;BME280;10836;53.068;18.234;2023-09-12T12:10:59;100699.56;;;36.36;27.20
21357;BME280;10836;53.068;18.234;2023-09-12T12:13:26;100696.06;;;36.15;25.96
21357;BME280;10836;53.068;18.234;2023-09-12T12:15:55;100697.56;;;35.91;26.48
21357;BME280;10836;53.068;18.234;2023-09-12T12:18:23;100704.44;;;36.89;26.39
21357;BME280;10836;53.068;18.234;2023-09-12T12:20:52;100705.56;;;37.30;26.06
21357;BME280;10836;53.068;18.234;2023-09-12T12:23:18;100695.38;;;36.53;25.74
21357;BME280;10836;53.068;18.234;2023-09-12T12:25:45;100695.78;;;37.06;26.29
21357;BME280;10836;53.068;18.234;2023-09-12T12:28:12;100696.47;;;36.84;25.91
21357;BME280;10836;53.068;18.234;2023-09-12T12:30:40;100694.59;;;35.49;26.74
21357;BME280;10836;53.068;18.234;2023-09-12T12:33:08;100705.34;;;36.74;25.66
21357;BME280;10836;53.068;18.234;2023-09-12T12:36:03;100693.72;;;36.68;26.30
21357;BME280;10836;53.068;18.234;2023-09-12T12:38:38;100691.34;;;35.63;27.29
21357;BME280;10836;53.068;18.234;2023-09-12T12:41:26;100697.44;;;36.52;24.76
21357;BME280;10836;53.068;18.234;2023-09-12T12:44:01;100699.56;;;36.36;23.83
21357;BME280;10836;53.068;18.234;2023-09-12T12:46:30;100695.66;;;36.71;23.07
21357;BME280;10836;53.068;18.234;2023-09-12T12:48:57;100689.56;;;37.71;21.54
21357;BME280;10836;53.068;18.234;2023-09-12T12:51:25;100686.25;;;37.25;22.24
21357;BME280;10836;53.068;18.234;2023-09-12T12:53:54;100684.28;;;36.84;23.81
21357;BME280;10836;53.068;18.234;2023-09-12T12:56:26;100693.44;;;36.50;25.13
21357;BME280;10836;53.068;18.234;2023-09-12T12:58:59;100682.03;;;35.63;23.04
21357;BME280;10836;53.068;18.234;2023-09-12T13:01:30;100676.25;;;35.66;23.63